Halfmoon, New York
Current Conditions -  °F | °C
As of 5:51 PM on Wednesday 26 Nov 2014 (Local Time) from KALB Reporting Station
Light Snow Light Snow  
Wind Chill: 24°   Ceiling: 600
Heat Index: 32°   Visibility: 1mi
Dew Point: 30°   Wind: 10mph
Humidity: 92%   Direction: 10°N
Pressure: 29.98"   Gusts: 22mph
Location:  42.8536°N, 73.7851°W
Report Text: KALB 262251Z 01009G19KT 1SM R01/4500VP6000FT -SN BR OVC006 00/M01 A2998 RMK AO2 SLP156 SNINCR 1/6 P0006 T00001011
Loading
Personal Weather Stations






























Interactive Weather Map New forecast layout! Learn more

10-Day Weather Forecast

Advertisements
Track Severe Weather on mobile